Time;durP1;ratioP1;P1;durP2;ratioP2;P2;SDS_P1;SDS_P2;PMS_P1;PMS_P2;Temp;Humidity;BMP_temperature;BMP_pressure;BME280_temperature;BME280_humidity;BME280_pressure;Samples;Min_cycle;Max_cycle;Signal;HPM_P1;HPM_P2
2022/09/22 00:01:39;;;;;;;2.65;1.33;;;;;;;9.06;100.00;100337.13;6298884;28;20063;-75
2022/09/22 00:04:40;;;;;;;2.00;1.20;;;;;;;9.08;100.00;100334.44;6297555;28;20098;-74
2022/09/22 00:07:42;;;;;;;2.03;1.50;;;;;;;9.07;100.00;100340.56;6281066;28;20048;-74
2022/09/22 00:10:43;;;;;;;2.25;1.52;;;;;;;9.05;100.00;100338.03;6297361;28;20495;-74
2022/09/22 00:13:52;;;;;;;1.27;1.15;;;;;;;9.01;100.00;100328.69;6297302;28;20406;-75
2022/09/22 00:17:02;;;;;;;3.78;2.08;;;;;;;9.18;100.00;100330.47;6297320;28;20479;-75
2022/09/22 00:20:03;;;;;;;3.67;1.65;;;;;;;9.18;100.00;100327.84;6297298;28;20040;-75
2022/09/22 00:23:04;;;;;;;2.40;1.60;;;;;;;9.30;100.00;100338.53;6297182;28;20071;-74
2022/09/22 00:26:09;;;;;;;1.42;1.30;;;;;;;9.35;100.00;100328.72;6297201;28;20072;-74
2022/09/22 00:29:15;;;;;;;4.55;1.63;;;;;;;9.30;100.00;100318.56;6298133;28;20061;-76
2022/09/22 00:32:17;;;;;;;2.67;1.67;;;;;;;9.43;100.00;100322.22;6296985;28;20049;-75
2022/09/22 00:35:18;;;;;;;8.15;1.30;;;;;;;9.56;100.00;100318.97;6296947;28;20074;-75
2022/09/22 00:38:19;;;;;;;1.88;1.63;;;;;;;9.53;100.00;100321.72;6298015;28;20123;-75
2022/09/22 00:41:23;;;;;;;2.22;1.60;;;;;;;9.54;100.00;100310.41;6298133;28;20048;-75
2022/09/22 00:44:30;;;;;;;2.83;1.23;;;;;;;9.58;100.00;100317.97;6296774;28;20076;-75
2022/09/22 00:47:43;;;;;;;3.20;1.83;;;;;;;9.46;100.00;100314.22;6296894;28;20127;-75
2022/09/22 00:50:44;;;;;;;2.40;1.30;;;;;;;9.35;100.00;100311.34;6296722;28;20375;-74
2022/09/22 00:53:46;;;;;;;2.65;1.58;;;;;;;9.49;100.00;100313.22;6296434;28;20049;-75
2022/09/22 00:56:55;;;;;;;2.00;1.48;;;;;;;9.45;100.00;100312.56;6297667;28;20128;-74
2022/09/22 00:59:57;;;;;;;1.75;1.15;;;;;;;9.39;100.00;100305.06;6296557;28;20048;-75
2022/09/22 01:02:59;;;;;;;3.22;1.60;;;;;;;9.38;100.00;100310.34;6298085;28;20068;-74
2022/09/22 01:06:03;;;;;;;1.80;1.20;;;;;;;9.40;100.00;100305.91;6297392;28;20037;-74
2022/09/22 01:09:05;;;;;;;2.13;1.50;;;;;;;9.44;100.00;100302.22;6296506;28;20044;-74
2022/09/22 01:12:06;;;;;;;2.55;1.65;;;;;;;9.38;100.00;100292.13;6297607;28;20132;-74
2022/09/22 01:15:23;;;;;;;2.97;1.70;;;;;;;9.40;100.00;100295.50;6297144;28;20086;-75
2022/09/22 01:18:43;;;;;;;2.03;1.35;;;;;;;9.33;100.00;100294.09;6297141;28;20048;-75
2022/09/22 01:21:45;;;;;;;2.85;1.80;;;;;;;9.39;100.00;100302.47;6296907;28;20491;-75
2022/09/22 01:25:23;;;;;;;2.83;1.85;;;;;;;9.34;100.00;100296.63;6297137;28;20044;-75
2022/09/22 01:28:55;;;;;;;2.47;1.50;;;;;;;9.27;100.00;100303.09;6296722;28;20051;-75
2022/09/22 01:32:04;;;;;;;1.70;1.10;;;;;;;9.34;100.00;100303.63;6296530;28;20422;-75
2022/09/22 01:35:10;;;;;;;1.90;1.23;;;;;;;9.27;100.00;100297.91;6295586;28;20067;-75
2022/09/22 01:38:44;;;;;;;1.92;1.40;;;;;;;9.30;100.00;100295.13;6278834;28;20132;-75
2022/09/22 01:41:58;;;;;;;2.67;1.60;;;;;;;9.20;100.00;100302.56;6294974;28;20140;-74
2022/09/22 01:45:12;;;;;;;2.47;1.42;;;;;;;9.19;100.00;100295.69;6295188;28;20449;-75
2022/09/22 01:48:19;;;;;;;2.97;1.65;;;;;;;9.04;100.00;100305.13;6295207;28;20382;-75
2022/09/22 01:51:26;;;;;;;2.30;1.48;;;;;;;9.06;100.00;100302.44;6296056;28;20040;-75
2022/09/22 01:54:27;;;;;;;5.32;1.95;;;;;;;9.04;100.00;100306.88;6295091;28;20479;-74
2022/09/22 01:57:41;;;;;;;2.25;1.52;;;;;;;9.02;100.00;100309.56;6283930;28;20048;-75
2022/09/22 02:01:12;;;;;;;3.03;1.55;;;;;;;8.96;100.00;100306.44;6271305;28;20049;-74
2022/09/22 02:04:21;;;;;;;1.77;1.48;;;;;;;9.08;100.00;100304.03;6269418;28;20045;-74
2022/09/22 02:07:37;;;;;;;2.25;0.88;;;;;;;9.10;100.00;100297.91;6269960;28;20061;-74
2022/09/22 02:10:44;;;;;;;1.65;1.30;;;;;;;9.06;100.00;100300.69;6271173;28;20037;-74
2022/09/22 02:13:46;;;;;;;2.05;1.23;;;;;;;9.16;100.00;100290.66;6270968;28;20045;-75
2022/09/22 02:16:47;;;;;;;1.25;1.13;;;;;;;9.10;100.00;100288.34;6270024;28;20079;-75
2022/09/22 02:19:50;;;;;;;2.25;1.40;;;;;;;9.16;100.00;100288.03;6253358;28;20103;-76
2022/09/22 02:22:51;;;;;;;;;;;;;;;9.19;100.00;100287.03;6270021;28;20044;-75
2022/09/22 02:25:53;;;;;;;2.63;1.10;;;;;;;9.20;100.00;100293.91;6269567;28;19925;-74
2022/09/22 02:29:01;;;;;;;;;;;;;;;9.16;100.00;100294.97;6270040;28;20048;-74
2022/09/22 02:32:06;;;;;;;3.53;1.25;;;;;;;9.11;100.00;100297.84;6270324;28;19968;-74
2022/09/22 02:35:08;;;;;;;2.88;1.30;;;;;;;9.10;100.00;100295.28;6269440;28;20041;-75
2022/09/22 02:38:15;;;;;;;1.65;1.38;;;;;;;9.06;100.00;100303.28;6270711;28;20041;-75
2022/09/22 02:41:48;;;;;;;3.20;1.50;;;;;;;8.94;100.00;100303.91;6270368;28;20040;-74
2022/09/22 02:45:10;;;;;;;3.28;1.92;;;;;;;8.84;100.00;100302.66;6260380;28;20060;-75
2022/09/22 02:48:39;;;;;;;4.97;1.75;;;;;;;8.80;100.00;100299.38;6270428;28;20130;-74
2022/09/22 02:51:40;;;;;;;4.45;1.85;;;;;;;8.72;100.00;100296.31;6270172;28;20628;-75
2022/09/22 02:54:41;;;;;;;3.45;1.73;;;;;;;8.68;100.00;100299.97;6268873;28;20048;-75
2022/09/22 02:57:42;;;;;;;2.90;1.35;;;;;;;8.64;100.00;100293.25;6270502;28;20242;-74
2022/09/22 03:00:44;;;;;;;2.80;1.38;;;;;;;8.73;100.00;100291.94;6268921;28;20242;-74
2022/09/22 03:03:45;;;;;;;2.77;1.50;;;;;;;8.76;100.00;100292.63;6269101;28;20046;-74
2022/09/22 03:06:45;;;;;;;2.25;1.50;;;;;;;8.85;100.00;100297.41;6268907;28;20304;-75
2022/09/22 03:09:46;;;;;;;8.13;1.70;;;;;;;8.70;100.00;100292.94;6269974;28;20041;-74
2022/09/22 03:12:49;;;;;;;3.15;1.38;;;;;;;8.74;100.00;100293.63;6268577;28;20131;-75
2022/09/22 03:15:50;;;;;;;6.70;1.58;;;;;;;8.78;100.00;100297.78;6269994;28;20065;-74
2022/09/22 03:18:51;;;;;;;3.17;1.92;;;;;;;8.75;100.00;100297.91;6269895;28;20399;-74
2022/09/22 03:21:52;;;;;;;2.75;1.52;;;;;;;8.81;100.00;100306.28;6269738;28;20045;-74
2022/09/22 03:24:53;;;;;;;2.95;1.33;;;;;;;8.86;100.00;100300.84;6268619;28;20045;-75
2022/09/22 03:27:53;;;;;;;3.90;1.67;;;;;;;8.79;100.00;100297.72;6268560;28;20467;-74
2022/09/22 03:30:54;;;;;;;3.38;1.52;;;;;;;8.76;100.00;100295.25;6269465;28;20045;-75
2022/09/22 03:33:55;;;;;;;3.38;1.45;;;;;;;8.70;100.00;100295.53;6272658;28;20037;-75
2022/09/22 03:36:56;;;;;;;2.42;1.38;;;;;;;8.70;100.00;100300.75;6275144;28;20040;-74
2022/09/22 03:39:59;;;;;;;1.75;1.30;;;;;;;8.67;100.00;100295.72;6274679;28;20079;-75
2022/09/22 03:43:00;;;;;;;1.95;1.40;;;;;;;8.72;100.00;100304.13;6273390;28;20045;-75
2022/09/22 03:46:01;;;;;;;4.20;1.52;;;;;;;8.70;100.00;100305.13;6274445;28;20068;-75
2022/09/22 03:49:02;;;;;;;1.88;1.00;;;;;;;8.76;100.00;100304.81;6273217;28;20052;-74
2022/09/22 03:52:03;;;;;;;2.03;1.25;;;;;;;8.71;100.00;100304.19;6272878;28;20107;-75
2022/09/22 03:55:04;;;;;;;7.03;1.35;;;;;;;8.80;100.00;100301.97;6273065;28;20045;-74
2022/09/22 03:58:05;;;;;;;2.33;1.33;;;;;;;8.83;100.00;100296.63;6274150;28;20469;-74
2022/09/22 04:01:08;;;;;;;1.30;1.17;;;;;;;8.87;100.00;100299.91;6273099;28;20049;-75
2022/09/22 04:04:09;;;;;;;2.45;1.33;;;;;;;8.91;100.00;100301.44;6272803;28;20048;-75
2022/09/22 04:07:10;;;;;;;3.05;1.83;;;;;;;8.79;100.00;100299.44;6272757;28;20474;-75
2022/09/22 04:10:10;;;;;;;3.67;1.50;;;;;;;8.82;100.00;100297.53;6273878;28;20086;-74
2022/09/22 04:13:12;;;;;;;2.13;1.20;;;;;;;8.86;100.00;100299.06;6272525;28;20067;-75
2022/09/22 04:16:13;;;;;;;1.77;1.20;;;;;;;8.91;100.00;100296.22;6282657;28;20040;-74
2022/09/22 04:19:14;;;;;;;3.33;1.70;;;;;;;8.92;100.00;100294.50;6275176;28;20040;-75
2022/09/22 04:22:15;;;;;;;5.40;2.13;;;;;;;8.87;100.00;100297.28;6289060;28;20048;-75
2022/09/22 04:25:15;;;;;;;3.05;1.20;;;;;;;8.91;100.00;100298.00;6272626;28;20044;-75
2022/09/22 04:28:16;;;;;;;1.23;1.13;;;;;;;8.93;100.00;100303.97;6298224;28;20494;-75
2022/09/22 04:31:18;;;;;;;2.72;1.45;;;;;;;9.00;100.00;100302.75;6296688;28;20406;-74
2022/09/22 04:34:19;;;;;;;1.15;0.90;;;;;;;8.99;100.00;100295.84;6296885;28;20033;-74
2022/09/22 04:37:24;;;;;;;1.08;0.98;;;;;;;9.14;100.00;100302.03;6296461;28;20044;-75
2022/09/22 04:40:25;;;;;;;4.55;1.60;;;;;;;9.07;100.00;100298.91;6298281;28;20047;-75
2022/09/22 04:43:26;;;;;;;2.28;1.25;;;;;;;9.16;100.00;100310.59;6282178;28;20041;-74
2022/09/22 04:46:27;;;;;;;1.40;1.10;;;;;;;9.15;100.00;100312.38;6277424;28;20049;-76
2022/09/22 04:49:28;;;;;;;1.83;1.40;;;;;;;9.17;100.00;100312.31;6274003;28;20049;-74
2022/09/22 04:52:28;;;;;;;3.03;1.63;;;;;;;9.21;100.00;100316.44;6271071;28;20049;-74
2022/09/22 04:55:32;;;;;;;3.55;1.70;;;;;;;8.97;100.00;100324.53;6272849;28;20075;-75
2022/09/22 04:58:33;;;;;;;5.45;2.58;;;;;;;9.14;100.00;100320.25;6272549;28;20463;-74
2022/09/22 05:01:34;;;;;;;4.18;2.90;;;;;;;9.00;100.00;100328.78;6271291;28;20037;-75
2022/09/22 05:04:35;;;;;;;3.00;1.52;;;;;;;8.93;100.00;100328.22;6271419;28;20506;-74
2022/09/22 05:07:41;;;;;;;2.80;1.35;;;;;;;8.88;100.00;100330.22;6272325;28;20098;-74
2022/09/22 05:10:41;;;;;;;4.90;2.05;;;;;;;8.84;100.00;100326.09;6270980;28;20037;-74
2022/09/22 05:13:42;;;;;;;2.08;1.75;;;;;;;8.90;100.00;100325.78;6271962;28;20045;-74
2022/09/22 05:16:43;;;;;;;3.10;1.52;;;;;;;9.05;100.00;100330.22;6272265;28;20037;-74
2022/09/22 05:19:46;;;;;;;3.60;1.80;;;;;;;9.20;100.00;100333.78;6272023;28;20041;-74
2022/09/22 05:22:47;;;;;;;2.42;1.65;;;;;;;9.29;100.00;100340.31;6272012;28;20045;-75
2022/09/22 05:25:47;;;;;;;3.53;2.45;;;;;;;9.29;100.00;100335.13;6271933;28;20091;-76
2022/09/22 05:28:50;;;;;;;3.13;1.90;;;;;;;9.40;100.00;100331.94;6270809;28;20073;-75
2022/09/22 05:31:50;;;;;;;1.77;1.50;;;;;;;9.54;100.00;100333.84;6283892;28;20043;-75
2022/09/22 05:34:51;;;;;;;2.55;1.75;;;;;;;9.31;100.00;100335.88;6287703;28;20041;-75
2022/09/22 05:37:53;;;;;;;4.70;2.75;;;;;;;9.55;100.00;100332.91;6274763;28;20048;-75
2022/09/22 05:40:53;;;;;;;4.22;2.47;;;;;;;9.65;100.00;100334.09;6316360;28;20041;-75
2022/09/22 05:43:54;;;;;;;4.35;2.67;;;;;;;9.62;100.00;100329.06;6296341;28;20048;-74
2022/09/22 05:46:55;;;;;;;4.47;2.60;;;;;;;9.83;100.00;100335.75;6295082;28;20403;-74
2022/09/22 05:49:56;;;;;;;3.15;2.15;;;;;;;9.97;100.00;100334.19;6295101;28;20048;-74
2022/09/22 05:53:11;;;;;;;6.55;3.35;;;;;;;10.04;100.00;100333.75;6294764;28;20075;-74
2022/09/22 05:56:12;;;;;;;3.00;2.05;;;;;;;10.17;100.00;100333.94;6295645;28;20077;-75
2022/09/22 05:59:13;;;;;;;2.88;2.13;;;;;;;10.12;100.00;100328.13;6294747;28;20044;-75
2022/09/22 06:02:13;;;;;;;2.40;1.77;;;;;;;10.33;100.00;100330.50;6276985;28;20044;-75
2022/09/22 06:05:16;;;;;;;2.55;1.60;;;;;;;10.48;100.00;100338.31;6280582;28;20042;-74
2022/09/22 06:08:17;;;;;;;5.05;2.20;;;;;;;10.51;100.00;100333.84;6294770;28;20074;-74
2022/09/22 06:11:18;;;;;;;2.88;1.90;;;;;;;10.71;100.00;100333.56;6295768;28;20071;-74
2022/09/22 06:14:19;;;;;;;2.83;1.63;;;;;;;10.89;100.00;100340.34;6294393;28;20048;-74
2022/09/22 06:17:21;;;;;;;2.72;1.20;;;;;;;10.95;100.00;100336.50;6295416;28;20041;-74
2022/09/22 06:20:22;;;;;;;2.75;1.77;;;;;;;11.11;100.00;100341.69;6295443;28;20066;-74
2022/09/22 06:23:25;;;;;;;3.85;1.88;;;;;;;11.27;100.00;100339.84;6294375;28;20051;-76
2022/09/22 06:26:26;;;;;;;2.05;1.48;;;;;;;11.22;100.00;100344.53;6293947;28;20116;-74
2022/09/22 06:29:29;;;;;;;3.33;1.75;;;;;;;11.34;100.00;100353.38;6294094;28;20069;-73
2022/09/22 06:32:30;;;;;;;3.03;1.60;;;;;;;11.50;100.00;100342.88;6293707;28;20052;-74
2022/09/22 06:35:36;;;;;;;3.75;1.67;;;;;;;11.59;100.00;100347.56;6295063;28;20055;-75
2022/09/22 06:38:38;;;;;;;2.67;1.38;;;;;;;11.81;100.00;100349.69;6295141;28;20515;-75
2022/09/22 06:41:39;;;;;;;4.65;2.08;;;;;;;11.87;100.00;100351.09;6293831;28;20056;-74
2022/09/22 06:44:40;;;;;;;2.80;1.80;;;;;;;11.98;100.00;100343.44;6294998;28;20123;-74
2022/09/22 06:47:41;;;;;;;4.15;1.52;;;;;;;12.24;100.00;100347.03;6294954;28;20044;-74
2022/09/22 06:50:50;;;;;;;3.73;1.80;;;;;;;12.53;100.00;100351.34;6293588;28;20049;-75
2022/09/22 06:53:53;;;;;;;2.22;1.60;;;;;;;12.54;100.00;100348.66;6293551;28;20347;-74
2022/09/22 06:56:54;;;;;;;3.22;1.55;;;;;;;12.60;100.00;100353.50;6294883;28;20098;-74
2022/09/22 06:59:55;;;;;;;1.60;1.30;;;;;;;12.41;100.00;100351.19;6293637;28;20040;-74
2022/09/22 07:03:05;;;;;;;3.80;1.75;;;;;;;12.53;100.00;100351.34;6294706;28;20086;-74
2022/09/22 07:06:07;;;;;;;1.40;1.08;;;;;;;12.68;100.00;100351.22;6293868;28;20048;-74
2022/09/22 07:09:08;;;;;;;1.50;1.10;;;;;;;12.70;100.00;100353.72;6292802;28;20036;-74
2022/09/22 07:12:11;;;;;;;3.33;1.60;;;;;;;12.64;100.00;100356.72;6293171;28;20422;-74
2022/09/22 07:15:12;;;;;;;2.92;1.20;;;;;;;12.58;100.00;100354.50;6294686;28;20043;-74
2022/09/22 07:18:13;;;;;;;2.42;1.42;;;;;;;12.45;100.00;100357.06;6290818;28;20036;-75
2022/09/22 07:21:20;;;;;;;3.05;1.50;;;;;;;12.57;100.00;100355.47;6291176;28;20048;-74
2022/09/22 07:24:20;;;;;;;1.50;1.30;;;;;;;12.65;100.00;100359.25;6293271;28;20047;-74
2022/09/22 07:27:24;;;;;;;2.75;1.42;;;;;;;12.66;100.00;100357.47;6294601;28;20032;-74
2022/09/22 07:30:26;;;;;;;3.40;0.98;;;;;;;12.75;97.41;100366.53;6291364;28;20044;-74
2022/09/22 07:33:27;;;;;;;2.50;1.40;;;;;;;12.81;97.21;100366.13;6268396;28;20136;-76
2022/09/22 07:36:32;;;;;;;3.50;1.25;;;;;;;12.86;97.84;100362.25;6268369;28;20045;-75
2022/09/22 07:39:33;;;;;;;7.25;1.30;;;;;;;12.96;97.71;100356.41;6268587;28;20052;-76
2022/09/22 07:42:33;;;;;;;6.32;1.30;;;;;;;13.06;95.19;100366.19;6269743;28;20475;-76
2022/09/22 07:45:34;;;;;;;3.30;1.75;;;;;;;13.20;96.83;100369.63;6268116;28;20468;-74
2022/09/22 07:48:46;;;;;;;1.92;1.58;;;;;;;13.13;94.86;100365.78;6251607;28;20049;-74
2022/09/22 07:51:48;;;;;;;3.20;1.65;;;;;;;13.36;97.88;100366.88;6268479;28;20399;-75
2022/09/22 07:54:49;;;;;;;2.13;1.60;;;;;;;13.33;95.34;100367.09;6268073;28;20033;-76
2022/09/22 07:57:54;;;;;;;3.00;1.60;;;;;;;14.02;93.51;100362.31;6268229;28;20076;-74
2022/09/22 08:00:55;;;;;;;2.08;1.58;;;;;;;14.41;91.88;100365.66;6268081;28;20080;-75
2022/09/22 08:03:56;;;;;;;1.83;1.23;;;;;;;14.00;90.29;100369.44;6269681;28;20045;-74
2022/09/22 08:06:56;;;;;;;1.60;1.30;;;;;;;13.80;91.76;100368.25;6269222;28;20045;-74
2022/09/22 08:09:57;;;;;;;1.45;1.10;;;;;;;13.66;87.88;100385.75;6292060;28;20047;-74
2022/09/22 08:12:59;;;;;;;1.80;1.35;;;;;;;14.08;86.33;100382.88;6293982;28;20044;-74
2022/09/22 08:16:02;;;;;;;1.75;1.10;;;;;;;14.18;81.23;100381.28;6294017;28;20036;-74
2022/09/22 08:19:10;;;;;;;0.82;0.73;;;;;;;14.38;81.74;100376.41;6293975;28;20558;-75
2022/09/22 08:22:11;;;;;;;1.10;0.82;;;;;;;14.58;75.35;100375.84;6298461;28;20044;-73
2022/09/22 08:25:12;;;;;;;0.70;0.70;;;;;;;15.02;73.70;100386.66;6313943;28;20202;-74
2022/09/22 08:28:13;;;;;;;1.23;1.00;;;;;;;14.98;73.65;100380.78;6298250;28;20040;-74
2022/09/22 08:31:16;;;;;;;0.90;0.70;;;;;;;14.67;70.64;100382.19;6282704;28;20128;-74
2022/09/22 08:34:17;;;;;;;0.82;0.73;;;;;;;15.40;72.92;100383.78;6270304;28;20041;-75
2022/09/22 08:37:19;;;;;;;0.43;0.38;;;;;;;15.56;69.80;100374.72;6272061;28;20063;-75
2022/09/22 08:40:22;;;;;;;1.02;0.63;;;;;;;15.83;69.13;100375.22;6276140;28;20087;-75
2022/09/22 08:43:23;;;;;;;0.55;0.55;;;;;;;15.43;67.70;100377.44;6278235;28;20075;-75
2022/09/22 08:46:28;;;;;;;0.90;0.80;;;;;;;15.57;66.33;100382.50;6273032;28;20041;-74
2022/09/22 08:52:58;;;;;;;0.60;0.50;;;;;;;15.84;64.94;100378.72;6272818;28;20077;-74
2022/09/22 08:56:22;;;;;;;1.02;0.70;;;;;;;15.58;65.90;100383.31;6288112;28;20061;-75
2022/09/22 08:59:31;;;;;;;0.60;0.60;;;;;;;15.83;65.18;100371.75;6295975;28;20040;-74
2022/09/22 09:02:37;;;;;;;0.50;0.50;;;;;;;16.22;64.72;100374.84;6272749;28;20135;-75
2022/09/22 09:05:45;;;;;;;0.82;0.50;;;;;;;16.58;61.09;100368.44;6274191;28;20045;-76
2022/09/22 09:09:18;;;;;;;1.13;0.60;;;;;;;16.94;61.67;100369.03;6286625;28;20044;-74
2022/09/22 09:12:34;;;;;;;1.00;0.40;;;;;;;17.08;59.60;100366.09;6273355;28;20049;-74
2022/09/22 09:15:54;;;;;;;0.93;0.43;;;;;;;17.19;56.48;100359.91;6287553;28;20042;-74
2022/09/22 09:19:05;;;;;;;0.82;0.60;;;;;;;17.25;55.34;100362.03;6281699;28;20446;-74
2022/09/22 09:22:24;;;;;;;1.35;0.60;;;;;;;17.59;57.65;100355.72;6294726;28;20495;-74
2022/09/22 09:25:40;;;;;;;1.10;0.63;;;;;;;17.91;56.86;100359.06;6270791;28;20068;-76
2022/09/22 09:28:54;;;;;;;3.20;0.57;;;;;;;17.87;53.93;100352.41;6270757;28;20053;-76
2022/09/22 09:31:59;;;;;;;0.50;0.50;;;;;;;17.59;57.21;100347.78;6270949;28;20124;-76
2022/09/22 09:35:01;;;;;;;0.52;0.32;;;;;;;17.99;53.20;100347.81;6271989;28;20045;-76
2022/09/22 09:38:08;;;;;;;1.15;0.70;;;;;;;17.92;53.46;100349.34;6271861;28;20044;-76
2022/09/22 09:41:16;;;;;;;0.85;0.50;;;;;;;16.62;57.14;100354.03;6284156;28;20055;-76
2022/09/22 09:44:41;;;;;;;0.40;0.40;;;;;;;15.85;60.27;100351.44;6282039;28;20044;-75
2022/09/22 09:47:54;;;;;;;0.88;0.52;;;;;;;15.60;59.95;100353.31;6272983;28;20479;-74
2022/09/22 09:51:02;;;;;;;0.40;0.35;;;;;;;17.04;57.41;100356.75;6283524;28;20047;-74
2022/09/22 09:54:08;;;;;;;0.77;0.50;;;;;;;17.02;59.23;100340.22;6294863;28;20040;-74
2022/09/22 09:57:14;;;;;;;2.03;0.90;;;;;;;16.14;59.77;100341.22;6296215;28;20049;-74
2022/09/22 10:00:30;;;;;;;0.80;0.65;;;;;;;15.30;65.63;100340.75;6282599;28;20048;-74
2022/09/22 10:03:33;;;;;;;0.85;0.47;;;;;;;14.83;67.57;100339.91;6286571;28;20052;-74
2022/09/22 10:06:35;;;;;;;1.08;0.52;;;;;;;14.83;70.83;100345.16;6269878;28;20044;-74
2022/09/22 10:09:36;;;;;;;0.93;0.80;;;;;;;15.89;63.93;100344.97;6282475;28;20048;-74
2022/09/22 10:12:36;;;;;;;1.55;1.10;;;;;;;16.70;61.08;100348.16;6280829;28;20052;-74
2022/09/22 10:15:39;;;;;;;0.55;0.52;;;;;;;17.20;57.35;100345.78;6276253;28;20477;-74
2022/09/22 10:18:40;;;;;;;1.45;0.60;;;;;;;17.50;56.17;100342.34;6294879;28;20040;-76
2022/09/22 10:21:41;;;;;;;2.35;0.68;;;;;;;17.50;52.92;100341.47;6294764;28;20041;-76
2022/09/22 10:24:59;;;;;;;1.88;1.45;;;;;;;17.90;55.12;100336.28;6293607;28;20044;-76
2022/09/22 10:28:01;;;;;;;0.60;0.52;;;;;;;17.94;53.61;100336.84;6293491;28;20040;-75
2022/09/22 10:31:02;;;;;;;0.60;0.52;;;;;;;18.10;53.15;100334.53;6293925;28;20479;-74
2022/09/22 10:34:05;;;;;;;0.80;0.60;;;;;;;18.26;54.10;100330.53;6293885;28;20044;-74
2022/09/22 10:37:09;;;;;;;0.80;0.52;;;;;;;18.43;54.44;100334.28;6310641;28;20125;-74
2022/09/22 10:40:15;;;;;;;1.27;0.70;;;;;;;18.75;52.96;100323.47;6295006;28;20127;-74
2022/09/22 10:43:36;;;;;;;2.15;1.20;;;;;;;17.95;50.43;100316.56;6295020;28;20076;-74
2022/09/22 10:46:56;;;;;;;0.93;0.70;;;;;;;17.22;55.52;100321.91;6293831;28;20041;-76
2022/09/22 10:50:19;;;;;;;2.25;1.30;;;;;;;17.01;57.47;100312.22;6276947;28;20462;-74
2022/09/22 10:53:47;;;;;;;0.38;0.35;;;;;;;17.77;53.84;100303.97;6294797;28;20441;-74
2022/09/22 10:56:53;;;;;;;1.13;0.73;;;;;;;16.92;54.49;100303.28;6286387;28;20094;-75
2022/09/22 11:00:12;;;;;;;2.20;1.17;;;;;;;16.34;57.33;100315.09;6274594;28;20092;-74
2022/09/22 11:03:30;;;;;;;3.10;1.40;;;;;;;16.11;57.55;100305.47;6280710;28;20045;-74
2022/09/22 11:14:27;;;;;;;1.35;0.90;;;;;;;18.27;50.28;100289.94;6283681;28;20438;-76
2022/09/22 11:17:54;;;;;;;4.03;1.75;;;;;;;18.82;49.41;100282.31;6276024;28;20139;-76
2022/09/22 11:21:11;;;;;;;1.85;0.68;;;;;;;18.48;47.97;100280.06;6290389;28;20443;-76
2022/09/22 11:24:30;;;;;;;1.00;0.60;;;;;;;18.39;47.81;100277.41;6245008;28;20064;-76
2022/09/22 11:28:02;;;;;;;0.40;0.40;;;;;;;18.77;49.13;100273.09;6243699;28;20069;-76
2022/09/22 11:31:03;;;;;;;0.30;0.30;;;;;;;19.14;44.35;100267.91;6243552;28;20062;-74
2022/09/22 11:34:27;;;;;;;2.38;1.30;;;;;;;18.97;49.61;100279.25;6244875;28;20079;-74
2022/09/22 11:37:52;;;;;;;0.52;0.50;;;;;;;17.89;50.80;100273.91;6260309;28;20492;-74
2022/09/22 11:41:16;;;;;;;2.38;1.35;;;;;;;17.15;60.41;100279.38;6243610;28;20045;-74
2022/09/22 11:44:32;;;;;;;4.35;1.58;;;;;;;16.93;58.24;100277.75;6247132;28;20050;-74
2022/09/22 11:47:46;;;;;;;6.70;1.30;;;;;;;16.63;57.45;100276.66;6282101;28;20045;-74
2022/09/22 11:50:59;;;;;;;3.38;1.17;;;;;;;16.34;57.65;100271.16;6283708;28;20107;-74
2022/09/22 11:54:18;;;;;;;4.03;1.35;;;;;;;16.31;56.84;100264.38;6272099;28;20040;-74
2022/09/22 11:57:23;;;;;;;6.20;1.60;;;;;;;16.00;55.90;100259.91;6274337;28;20037;-74
2022/09/22 12:00:28;;;;;;;16.20;2.50;;;;;;;15.87;55.88;100260.88;6274202;28;20052;-74
2022/09/22 12:03:44;;;;;;;3.42;1.17;;;;;;;15.78;56.64;100253.75;6277608;28;20053;-75
2022/09/22 12:06:50;;;;;;;0.68;0.47;;;;;;;15.89;55.67;100252.88;6277371;28;20041;-75
2022/09/22 12:10:02;;;;;;;5.10;1.83;;;;;;;16.82;54.84;100249.69;6274042;28;20040;-75
2022/09/22 12:13:10;;;;;;;2.38;0.90;;;;;;;17.79;56.43;100245.75;6274953;28;20045;-76
2022/09/22 12:16:24;;;;;;;1.23;0.65;;;;;;;18.26;50.76;100248.66;6281523;28;20059;-75
2022/09/22 12:19:49;;;;;;;0.60;0.55;;;;;;;17.55;54.98;100249.59;6281652;28;20037;-74
2022/09/22 12:23:08;;;;;;;1.08;0.75;;;;;;;16.72;54.38;100265.38;6265570;28;20053;-74
2022/09/22 12:26:12;;;;;;;0.93;0.50;;;;;;;16.17;57.87;100262.03;6273136;28;20041;-75
2022/09/22 12:29:13;;;;;;;0.73;0.50;;;;;;;16.73;56.28;100267.03;6272761;28;20123;-75
2022/09/22 12:32:28;;;;;;;1.52;1.08;;;;;;;17.79;52.43;100251.91;6272364;28;20085;-75
2022/09/22 12:35:32;;;;;;;0.82;0.55;;;;;;;17.75;50.94;100244.38;6272287;28;20067;-75
2022/09/22 12:38:33;;;;;;;3.80;2.22;;;;;;;17.46;50.49;100248.59;6272126;28;20135;-75
2022/09/22 12:41:49;;;;;;;5.97;3.60;;;;;;;17.22;54.24;100250.72;6273496;28;20487;-75
2022/09/22 12:44:53;;;;;;;1.75;1.60;;;;;;;16.71;53.12;100253.16;6273240;28;20570;-74
2022/09/22 12:47:57;;;;;;;1.30;1.13;;;;;;;16.29;52.47;100253.13;6305344;28;20052;-74
2022/09/22 12:51:23;;;;;;;0.32;0.30;;;;;;;16.02;55.02;100260.63;6276051;28;20041;-74
2022/09/22 12:54:25;;;;;;;0.20;0.20;;;;;;;15.95;56.06;100252.38;6290568;28;20426;-75
2022/09/22 12:57:26;;;;;;;0.30;0.30;;;;;;;15.83;57.18;100246.31;6293433;28;20048;-75
2022/09/22 13:00:35;;;;;;;0.28;0.22;;;;;;;15.49;57.00;100241.06;6257511;28;20661;-75
2022/09/22 13:03:36;;;;;;;0.60;0.35;;;;;;;15.63;58.15;100244.41;6271409;28;20048;-75
2022/09/22 13:06:37;;;;;;;2.35;0.40;;;;;;;15.80;58.81;100251.81;6275486;28;20392;-76
2022/09/22 14:45:55;;;;;;;0.82;0.73;;;;;;;17.28;51.76;100221.19;6343794;27;20721;-74
2022/09/22 14:48:56;;;;;;;4.93;2.10;;;;;;;17.22;51.69;100222.53;6342509;28;20047;-73
2022/09/22 14:51:58;;;;;;;2.83;1.00;;;;;;;17.08;52.52;100218.44;6343697;28;20067;-73
2022/09/22 14:55:26;;;;;;;1.20;1.00;;;;;;;16.60;52.37;100226.88;6342522;28;20051;-72
2022/09/22 14:58:32;;;;;;;0.70;0.55;;;;;;;16.46;54.01;100220.13;6331096;28;20047;-73
2022/09/22 15:04:56;;;;;;;1.17;0.95;;;;;;;16.23;53.55;100224.66;6332552;28;20040;-73
2022/09/22 15:07:58;;;;;;;1.38;0.70;;;;;;;16.02;53.92;100227.25;6325015;28;20052;-73
2022/09/22 15:10:58;;;;;;;0.90;0.70;;;;;;;15.92;54.09;100234.22;6343162;28;20410;-74
2022/09/22 15:13:59;;;;;;;1.00;0.70;;;;;;;15.77;51.58;100233.63;6341978;28;20048;-73
2022/09/22 15:20:40;;;;;;;2.35;1.45;;;;;;;15.72;53.54;100235.81;6341548;28;20052;-73
2022/09/22 15:23:44;;;;;;;2.88;1.50;;;;;;;15.83;55.35;100237.56;6342914;28;20134;-72
2022/09/22 15:26:45;;;;;;;1.98;1.27;;;;;;;15.74;55.65;100233.06;6342806;28;20048;-73
2022/09/22 15:29:49;;;;;;;2.05;1.20;;;;;;;15.78;56.69;100229.22;6341627;28;20387;-73
2022/09/22 15:32:49;;;;;;;1.60;0.70;;;;;;;15.70;58.12;100233.25;6358582;27;20039;-72
2022/09/22 15:36:00;;;;;;;0.75;0.75;;;;;;;15.53;57.67;100231.16;6341237;28;20078;-73
2022/09/22 15:39:07;;;;;;;2.03;1.00;;;;;;;15.56;60.67;100241.41;6358325;27;20044;-73
2022/09/22 15:42:10;;;;;;;0.80;0.75;;;;;;;15.49;59.77;100234.97;6342311;27;20036;-74
2022/09/22 15:45:20;;;;;;;1.73;1.13;;;;;;;15.52;60.27;100234.72;6366162;27;20062;-74
2022/09/22 15:48:25;;;;;;;1.40;0.88;;;;;;;15.45;60.01;100236.19;6325394;28;20044;-74
2022/09/22 15:51:30;;;;;;;0.68;0.55;;;;;;;15.28;61.70;100242.75;6307168;28;20079;-74
2022/09/22 15:54:31;;;;;;;1.35;0.90;;;;;;;15.29;61.97;100239.16;6325344;28;20048;-74
2022/09/22 15:57:32;;;;;;;1.80;1.02;;;;;;;15.15;60.69;100234.97;6325457;28;20129;-73
2022/09/22 16:00:34;;;;;;;1.25;1.00;;;;;;;15.07;60.05;100243.47;6325147;28;20051;-74
2022/09/22 16:03:37;;;;;;;2.15;1.38;;;;;;;15.10;62.25;100255.53;6306857;28;20499;-74
2022/09/22 16:06:40;;;;;;;;;;;;;;;15.11;62.85;100255.41;6307259;28;20055;-74
2022/09/22 16:09:40;;;;;;;6.10;1.90;;;;;;;14.99;64.71;100258.97;6323700;28;19969;-74
2022/09/22 16:12:42;;;;;;;3.10;2.00;;;;;;;15.09;65.63;100261.72;6323366;28;20090;-73
2022/09/22 16:15:42;;;;;;;1.80;1.38;;;;;;;15.06;68.21;100264.59;6323944;28;20039;-73
2022/09/22 16:18:44;;;;;;;2.92;1.35;;;;;;;15.04;67.21;100271.75;6323554;28;20154;-74